Latest Coastal Weather Observations for Larapuna (Eddystone Point)

IDT60701

Issued at 4:35 pm EST Tuesday 2 September 2014 (issued every 10 minutes, with the page automatically refreshed every 10 minutes)

About coastal observations | Map of coastal stations | Coastal observations for TAS | Marine services | Other Formats
Station Details ID: 092045 Name: LARAPUNA (EDDYSTONE POINT) Lat: -40.99 Lon: 148.35 Height: 19.7 m
Data from the previous 72 hours. | See also: Recent months at Larapuna (Eddystone Point)
Date/Time
EST
Temp

°C
Wind Pressure Rain
since 9am
mm
Weather Cloud Vis
km
Sea
Height
m
Swell
Dir
 
Speed
knots
Gust
knots
hPa Trend Height
m
Period
s
Dir
02/04:30pm 11.9 S 19 23 1017.0 - 0.0 - - - - - - -
02/04:00pm 12.3 S 21 25 1016.7 - 0.0 - - - - - - -
02/03:30pm 12.4 S 22 26 1016.4 - 0.0 - - - - - - -
02/03:00pm 12.8 S 23 29 1016.1 - 0.0 - - - - - - -
02/02:30pm 12.7 SSE 24 28 1015.8 - 0.0 - - - - - - -
02/02:00pm 12.6 S 26 31 1015.7 - 0.0 - - - - - - -
02/01:30pm 12.3 S 28 33 1015.7 - 0.0 - - - - - - -
02/01:00pm 12.6 S 28 33 1015.6 - 0.0 - - - - - - -
02/12:30pm 13.1 S 27 33 1015.7 - 0.0 - - - - - - -
02/12:00pm 13.2 S 26 32 1015.6 - 0.0 - - - - - - -
02/11:30am 12.9 S 29 35 1015.5 - 0.0 - - - - - - -
02/11:00am 12.9 S 29 34 1015.4 - 0.0 - - - - - - -
02/10:30am 12.6 S 30 38 1015.0 - 0.0 - - - - - - -
02/10:00am 11.9 S 30 36 1014.8 - 0.0 - - - - - - -
02/09:30am 11.7 S 30 36 1014.5 - 0.0 - - - - - - -
02/09:00am 11.0 S 29 35 1014.3 - 0.8 - - - - - - -
02/08:30am 10.7 S 29 35 1013.9 - 0.8 - - - - - - -
02/08:00am 10.6 S 28 34 1013.7 - 0.8 - - - - - - -
02/07:30am 10.3 S 29 35 1013.1 - 0.8 - - - - - - -
02/07:00am 10.3 S 27 33 1012.6 - 0.8 - - - - - - -
02/06:30am 10.2 S 28 32 1012.1 - 0.8 - - - - - - -
02/06:00am 9.5 S 28 34 1011.8 - 0.8 - - - - - - -
02/05:30am 10.1 S 27 32 1011.4 - 0.8 - - - - - - -
02/05:00am 9.8 S 31 41 1011.1 - 0.8 - - - - - - -
02/04:49am 10.1 S 27 37 1010.9 - 0.8 - - - - - - -
02/04:30am 10.0 S 28 33 1010.6 - 0.8 - - - - - - -
02/04:03am 10.4 S 31 41 1010.1 - 0.8 - - - - - - -
02/04:00am 10.4 S 30 37 1010.2 - 0.8 - - - - - - -
02/03:58am 10.4 S 30 40 1010.1 - 0.8 - - - - - - -
02/03:30am 10.5 S 31 37 1010.0 - 0.8 - - - - - - -
02/03:16am 10.6 S 27 37 1009.7 - 0.8 - - - - - - -
02/03:00am 10.7 S 29 36 1009.6 - 0.8 - - - - - - -
02/02:30am 11.2 S 28 34 1009.4 - 0.8 - - - - - - -
02/02:00am 11.0 S 33 39 1009.3 - 0.8 - - - - - - -
02/01:30am 10.6 S 31 38 1009.3 - 0.8 - - - - - - -
02/01:00am 10.5 S 27 34 1009.2 - 0.8 - - - - - - -
02/12:30am 10.0 S 28 35 1009.0 - 0.6 - - - - - - -
02/12:00am 10.7 S 25 32 1008.8 - 0.6 - - - - - - -
 
Date/Time
EST
Temp

°C
Wind Pressure Rain
since 9am
mm
Weather Cloud Vis
km
Sea
Height
m
Swell
Dir
 
Speed
knots
Gust
knots
hPa Trend Height
m
Period
s
Dir
01/11:30pm 10.5 S 21 25 1008.5 - 0.6 - - - - - - -
01/11:00pm 10.3 S 19 25 1008.3 - 0.6 - - - - - - -
01/10:30pm 10.4 SSW 18 19 1008.2 - 0.6 - - - - - - -
01/10:00pm 10.8 S 22 27 1007.8 - 0.6 - - - - - - -
01/09:30pm 10.8 S 25 30 1007.7 - 0.6 - - - - - - -
01/09:00pm 11.0 S 21 25 1007.6 - 0.6 Rain - - - - - -
01/08:30pm 11.2 SSE 17 22 1007.3 - 0.2 - - - - - - -
01/08:26pm 11.5 SSE 19 22 1007.3 - 0.2 - - - - - - -
01/08:00pm 12.0 NW 8 11 1006.6 - 0.0 - - - - - - -
01/07:30pm 11.8 WNW 7 9 1006.2 - 0.0 - - - - - - -
01/07:00pm 12.0 W 10 13 1005.9 - 0.0 - - - - - - -
01/06:30pm 12.4 NW 12 17 1005.5 - 0.0 - - - - - - -
01/06:00pm 12.4 NW 14 18 1004.9 - 0.0 - - - - - - -
01/05:30pm 12.3 NW 14 20 1004.6 - 0.0 - - - - - - -
01/05:00pm 12.2 NW 18 25 1004.1 - 0.0 - - - - - - -
01/04:30pm 12.3 NW 19 25 1003.7 - 0.0 - - - - - - -
01/04:01pm 12.7 NW 17 28 1003.9 - 0.0 - - - - - - -
01/04:00pm 12.7 NW 17 24 1004.0 - 0.0 - - - - - - -
01/03:31pm 13.9 NW 21 31 1003.8 - 0.0 - - - - - - -
01/03:30pm 14.0 NW 21 30 1003.8 - 0.0 - - - - - - -
01/03:16pm 14.1 NW 21 33 1003.6 - 0.0 - - - - - - -
01/03:00pm 14.4 NW 19 27 1003.6 - 0.0 - - - - - - -
01/02:37pm 14.5 NW 20 30 1003.7 - 0.0 - - - - - - -
01/02:30pm 14.9 NW 20 27 1003.6 - 0.0 - - - - - - -
01/02:00pm 15.6 NNW 20 26 1003.5 - 0.0 - - - - - - -
01/01:30pm 15.1 NNW 15 19 1003.7 - 0.0 - - - - - - -
01/01:00pm 15.6 NW 16 22 1004.1 - 0.0 - - - - - - -
01/12:30pm 15.7 NW 17 25 1004.9 - 0.0 - - - - - - -
01/12:07pm 15.9 NNW 16 26 1005.1 - 0.0 - - - - - - -
01/12:00pm 15.5 NNW 16 20 1005.3 - 0.0 - - - - - - -
01/11:30am 15.4 NNW 13 17 1005.4 - 0.0 - - - - - - -
01/11:00am 15.6 NNW 13 16 1005.4 - 0.0 - - - - - - -
01/10:30am 15.9 NW 16 21 1006.2 - 0.0 - - - - - - -
01/10:00am 15.7 NW 18 25 1006.3 - 0.0 - - - - - - -
01/09:30am 14.9 N 15 20 1006.2 - 0.0 - - - - - - -
01/09:00am 14.8 NNW 16 22 1006.7 - 0.0 - - - - - - -
01/08:30am 14.8 NNW 18 22 1007.0 - 0.0 - - - - - - -
01/08:25am 14.7 NNW 18 22 1007.0 - 0.0 - - - - - - -
01/08:00am 13.7 N 7 8 1007.5 - 0.0 - - - - - - -
01/07:30am 13.6 NNW 9 11 1007.7 - 0.0 - - - - - - -
01/07:00am 13.7 NNW 9 14 1007.8 - 0.0 - - - - - - -
01/06:30am 13.8 N 15 20 1007.6 - 0.0 - - - - - - -
01/06:00am 13.8 N 15 19 1007.8 - 0.0 - - - - - - -
01/05:30am 13.8 N 17 21 1007.7 - 0.0 - - - - - - -
01/05:00am 13.8 N 15 19 1008.1 - 0.0 - - - - - - -
01/04:30am 13.5 N 14 17 1008.2 - 0.0 - - - - - - -
01/04:00am 13.5 N 13 16 1008.7 - 0.0 - - - - - - -
01/03:30am 13.4 NNW 13 16 1009.0 - 0.0 - - - - - - -
01/03:00am 13.6 N 15 20 1009.3 - 0.0 - - - - - - -
01/02:30am 13.5 N 14 17 1009.6 - 0.0 - - - - - - -
01/02:00am 13.5 N 15 19 1010.0 - 0.0 - - - - - - -
01/01:30am 13.4 N 13 17 1010.5 - 0.0 - - - - - - -
01/01:00am 13.2 N 11 14 1010.8 - 0.0 - - - - - - -
01/12:30am 13.2 N 11 13 1011.2 - 0.0 - - - - - - -
01/12:00am 13.1 N 9 11 1011.4 - 0.0 - - - - - - -
 
Date/Time
EST
Temp

°C
Wind Pressure Rain
since 9am
mm
Weather Cloud Vis
km
Sea
Height
m
Swell
Dir
 
Speed
knots
Gust
knots
hPa Trend Height
m
Period
s
Dir
31/11:30pm 12.9 N 9 11 1011.8 - 0.0 - - - - - - -
31/11:00pm 12.9 N 10 13 1012.1 - 0.0 - - - - - - -
31/10:30pm 12.7 N 10 12 1012.6 - 0.0 - - - - - - -
31/10:00pm 12.8 N 10 13 1012.8 - 0.0 - - - - - - -
31/09:30pm 12.9 N 13 16 1013.3 - 0.0 - - - - - - -
31/09:00pm 12.7 N 12 15 1013.4 - 0.0 - - - - - - -
31/08:30pm 12.8 N 14 17 1013.7 - 0.0 - - - - - - -
31/08:00pm 12.8 N 11 15 1014.0 - 0.0 - - - - - - -
31/07:30pm 12.5 NNW 9 10 1014.1 - 0.0 - - - - - - -
31/07:00pm 12.3 NNW 8 11 1014.0 - 0.0 - - - - - - -
31/06:30pm 12.9 NNW 9 11 1014.0 - 0.0 - - - - - - -
31/06:00pm 13.0 N 9 13 1013.9 - 0.0 - - - - - - -
31/05:30pm 13.2 N 10 13 1014.1 - 0.0 - - - - - - -
31/05:00pm 13.6 N 12 15 1014.1 - 0.0 - - - - - - -
31/04:30pm 14.2 N 11 14 1014.1 - 0.0 - - - - - - -
31/04:00pm 14.7 N 13 15 1014.2 - 0.0 - - - - - - -
31/03:30pm 15.1 N 13 17 1014.4 - 0.0 - - - - - - -
31/03:00pm 15.5 N 14 17 1014.8 - 0.0 - - - - - - -
31/02:30pm 15.8 N 13 16 1015.2 - 0.0 - - - - - - -
31/02:00pm 15.3 N 13 16 1015.5 - 0.0 - - - - - - -
31/01:30pm 14.9 N 13 16 1015.9 - 0.0 - - - - - - -
31/01:00pm 16.3 N 13 15 1016.3 - 0.0 - - - - - - -
31/12:30pm 15.7 N 13 15 1016.7 - 0.0 - - - - - - -
31/12:00pm 16.2 N 12 14 1017.3 - 0.0 - - - - - - -
31/11:30am 16.2 N 13 15 1017.7 - 0.0 - - - - - - -
31/11:00am 15.8 N 10 12 1018.2 - 0.0 - - - - - - -
31/10:30am 15.0 N 8 9 1018.6 - 0.0 - - - - - - -
31/10:00am 15.0 N 6 7 1019.2 - 0.0 - - - - - - -
31/09:30am 14.4 NNW 7 9 1019.4 - 0.0 - - - - - - -
31/09:00am 13.8 NNW 7 9 1019.5 - 0.0 - - - - - - -
31/08:30am 12.6 NW 6 7 1019.8 - 0.0 - - - - - - -
31/08:00am 11.1 WNW 3 5 1019.9 - 0.0 - - - - - - -
31/07:30am 9.8 WNW 6 7 1019.8 - 0.0 - - - - - - -
31/07:00am 8.9 WNW 9 9 1019.9 - 0.0 - - - - - - -
31/06:30am 8.9 WNW 7 8 1019.7 - 0.0 - - - - - - -
31/06:00am 8.8 NW 8 9 1019.8 - 0.0 - - - - - - -
31/05:30am 8.7 WNW 7 8 1019.9 - 0.0 - - - - - - -
31/05:00am 8.7 WNW 8 9 1020.0 - 0.0 - - - - - - -
31/04:30am 8.5 WNW 7 8 1020.1 - 0.0 - - - - - - -
31/04:00am 8.5 WNW 7 8 1020.3 - 0.0 - - - - - - -
31/03:30am 8.6 WNW 6 8 1020.6 - 0.0 - - - - - - -
31/03:00am 8.6 NW 6 7 1020.7 - 0.0 - - - - - - -
31/02:30am 9.2 NW 6 7 1021.2 - 0.0 - - - - - - -
31/02:00am 10.2 N 6 6 1021.5 - 0.0 - - - - - - -
31/01:30am 10.3 N 5 6 1021.7 - 0.0 - - - - - - -
31/01:00am 10.3 N 5 6 1022.2 - 0.0 - - - - - - -
31/12:30am 10.6 N 4 5 1022.5 - 0.0 - - - - - - -
31/12:00am 10.2 NW 5 5 1023.0 - 0.0 - - - - - - -
 
Date/Time
EST
Temp

°C
Wind Pressure Rain
since 9am
mm
Weather Cloud Vis
km
Sea
Height
m
Swell
Dir
 
Speed
knots
Gust
knots
hPa Trend Height
m
Period
s
Dir
30/11:30pm 10.5 NW 4 4 1023.3 - 0.0 - - - - - - -
30/11:00pm 10.4 NW 5 5 1023.7 - 0.0 - - - - - - -
30/10:30pm 11.2 NNW 5 6 1023.9 - 0.0 - - - - - - -
30/10:00pm 12.6 N 7 9 1024.3 - 0.0 - - - - - - -
30/09:30pm 12.9 NNE 10 11 1024.4 - 0.0 - - - - - - -
30/09:00pm 12.6 NE 11 13 1024.4 - 0.0 - - - - - - -
30/08:30pm 12.8 NE 11 13 1024.7 - 0.0 - - - - - - -
30/08:00pm 12.8 NNE 10 12 1024.7 - 0.0 - - - - - - -
30/07:30pm 12.8 NE 11 12 1024.8 - 0.0 - - - - - - -
30/07:00pm 13.1 NNE 11 12 1025.0 - 0.0 - - - - - - -
30/06:30pm 12.8 NNE 8 9 1025.3 - 0.0 - - - - - - -
30/06:00pm 12.9 NNE 8 9 1025.3 - 0.0 - - - - - - -
30/05:30pm 13.2 NNE 8 9 1025.3 - 0.0 - - - - - - -
30/05:00pm 13.7 NNE 6 8 1025.3 - 0.0 - - - - - - -

Other Formats:

Comma delimited format used in spreadsheet applications
http://www.bom.gov.au/fwo/IDT60701/IDT60701.94983.axf

JavaScript Object Notation format (JSON) in row-major order
http://www.bom.gov.au/fwo/IDT60701/IDT60701.94983.json